Time;durP1;ratioP1;P1;durP2;ratioP2;P2;SDS_P1;SDS_P2;PMS_P1;PMS_P2;Temp;Humidity;BMP_temperature;BMP_pressure;BME280_temperature;BME280_humidity;BME280_pressure;Samples;Min_cycle;Max_cycle;Signal;HPM_P1;HPM_P2
2021/06/12 00:01:48;;;;;;;33.07;31.07;;;20.00;78.90;;;;;;5082309;28;20536;-79
2021/06/12 00:04:15;;;;;;;32.67;30.77;;;19.90;79.00;;;;;;5090794;28;20536;-79
2021/06/12 00:06:41;;;;;;;33.03;31.03;;;19.90;79.00;;;;;;5083523;28;20525;-79
2021/06/12 00:09:08;;;;;;;33.30;31.40;;;19.90;79.00;;;;;;5089022;28;20825;-79
2021/06/12 00:11:35;;;;;;;34.30;32.00;;;19.80;79.30;;;;;;5087183;28;22135;-79
2021/06/12 00:14:01;;;;;;;33.87;31.87;;;19.80;79.40;;;;;;5086393;28;21265;-79
2021/06/12 00:16:28;;;;;;;32.53;30.50;;;19.80;79.30;;;;;;5082972;28;20458;-79
2021/06/12 00:18:55;;;;;;;32.93;31.03;;;19.80;79.20;;;;;;5089677;28;20463;-79
2021/06/12 00:21:22;;;;;;;32.20;30.30;;;19.80;79.20;;;;;;5084152;28;20566;-79
2021/06/12 00:23:48;;;;;;;32.60;30.80;;;19.80;79.30;;;;;;5091179;28;20485;-79
2021/06/12 00:26:17;;;;;;;34.30;32.10;;;19.70;79.60;;;;;;5081904;28;20481;-79
2021/06/12 00:28:44;;;;;;;35.40;33.27;;;19.70;79.50;;;;;;5087207;28;20519;-79
2021/06/12 00:31:10;;;;;;;33.87;31.77;;;19.70;79.30;;;;;;5081304;28;20522;-79
2021/06/12 00:33:37;;;;;;;33.37;31.43;;;19.60;79.60;;;;;;5075032;28;20480;-81
2021/06/12 00:36:05;;;;;;;34.27;32.03;;;19.60;79.70;;;;;;5080990;28;20489;-80
2021/06/12 00:38:31;;;;;;;33.00;31.00;;;19.60;79.70;;;;;;5080533;28;20469;-80
2021/06/12 00:40:57;;;;;;;34.50;31.80;;;19.60;79.60;;;;;;5072086;28;20453;-79
2021/06/12 00:43:24;;;;;;;33.50;31.60;;;19.60;79.40;;;;;;5080443;28;20473;-80
2021/06/12 00:45:50;;;;;;;32.30;30.40;;;19.50;79.80;;;;;;5080894;28;20487;-79
2021/06/12 00:48:16;;;;;;;33.23;31.13;;;19.40;80.10;;;;;;5084150;28;20457;-79
2021/06/12 00:50:43;;;;;;;32.60;30.60;;;19.40;80.60;;;;;;5083880;28;20966;-79
2021/06/12 00:53:11;;;;;;;33.40;31.17;;;19.50;80.30;;;;;;5081534;28;20564;-80
2021/06/12 00:55:37;;;;;;;32.70;30.80;;;19.50;80.20;;;;;;5083178;28;20464;-80
2021/06/12 00:58:08;;;;;;;32.23;30.40;;;19.40;80.60;;;;;;5085767;28;20465;-80
2021/06/12 01:00:35;;;;;;;34.30;32.13;;;19.30;81.10;;;;;;5087225;28;20467;-81
2021/06/12 01:03:01;;;;;;;34.43;32.23;;;19.30;80.90;;;;;;5087008;28;20541;-81
2021/06/12 01:05:28;;;;;;;33.67;31.70;;;19.20;81.00;;;;;;5089176;28;20477;-81
2021/06/12 01:07:54;;;;;;;33.20;31.30;;;19.20;81.20;;;;;;5085743;28;20555;-79
2021/06/12 01:10:22;;;;;;;32.97;31.03;;;19.20;81.10;;;;;;5089052;28;20449;-80
2021/06/12 01:13:10;;;;;;;32.83;30.93;;;19.20;81.00;;;;;;5086010;28;20489;-80
2021/06/12 01:15:50;;;;;;;32.33;30.50;;;19.20;81.00;;;;;;5087104;28;20459;-81
2021/06/12 01:18:19;;;;;;;32.00;30.00;;;19.10;81.50;;;;;;5087291;28;20527;-80
2021/06/12 01:21:08;;;;;;;33.40;31.20;;;19.10;81.40;;;;;;5089049;28;20461;-79
2021/06/12 01:24:24;;;;;;;32.00;30.07;;;19.10;81.50;;;;;;5081770;28;20491;-80
2021/06/12 01:27:11;;;;;;;32.50;30.57;;;19.00;81.50;;;;;;4990692;28;20511;-80
2021/06/12 01:30:06;;;;;;;33.27;31.20;;;19.00;81.70;;;;;;5082396;28;20453;-81
2021/06/12 01:32:35;;;;;;;33.77;31.70;;;18.90;81.90;;;;;;5079083;28;21540;-80
2021/06/12 01:35:06;;;;;;;32.47;30.67;;;18.90;81.80;;;;;;5083280;28;20518;-80
2021/06/12 01:37:36;;;;;;;34.67;32.47;;;18.80;82.10;;;;;;5079852;28;21037;-80
2021/06/12 01:40:04;;;;;;;33.63;31.43;;;18.80;82.20;;;;;;5086814;28;20460;-80
2021/06/12 01:42:32;;;;;;;32.90;30.90;;;18.80;82.20;;;;;;5087408;28;20457;-81
2021/06/12 01:45:00;;;;;;;32.70;30.87;;;18.80;82.10;;;;;;5079915;28;21250;-80
2021/06/12 01:47:31;;;;;;;34.10;31.90;;;18.80;82.00;;;;;;5080607;28;20480;-80
2021/06/12 01:49:58;;;;;;;33.43;31.17;;;18.70;82.30;;;;;;5087385;28;20457;-80
2021/06/12 01:52:25;;;;;;;32.83;30.93;;;18.80;82.40;;;;;;5087333;28;20453;-81
2021/06/12 01:54:52;;;;;;;32.37;30.37;;;18.80;82.40;;;;;;5086811;28;20540;-81
2021/06/12 01:57:20;;;;;;;32.20;30.20;;;18.80;82.30;;;;;;5084845;28;20468;-80
2021/06/12 01:59:49;;;;;;;33.73;31.40;;;18.80;81.90;;;;;;5088229;28;20471;-80
2021/06/12 02:02:17;;;;;;;33.10;31.00;;;18.80;82.10;;;;;;5086325;28;20463;-80
2021/06/12 02:04:47;;;;;;;31.67;29.83;;;18.70;82.20;;;;;;5086241;28;20460;-81
2021/06/12 02:07:14;;;;;;;32.37;30.37;;;18.70;82.30;;;;;;5084062;28;20481;-80
2021/06/12 02:09:43;;;;;;;33.63;31.57;;;18.70;82.30;;;;;;5087097;28;20518;-80
2021/06/12 02:12:11;;;;;;;32.87;30.80;;;18.70;82.40;;;;;;5079960;28;20457;-80
2021/06/12 02:14:40;;;;;;;33.60;31.40;;;18.70;82.50;;;;;;5089035;28;20473;-81
2021/06/12 02:17:06;;;;;;;32.67;30.70;;;18.60;82.60;;;;;;5090507;28;21344;-81
2021/06/12 02:19:35;;;;;;;33.40;31.33;;;18.60;82.80;;;;;;5087855;28;20445;-81
2021/06/12 02:22:04;;;;;;;33.10;30.87;;;18.60;82.50;;;;;;5086747;28;21194;-81
2021/06/12 02:24:30;;;;;;;33.40;31.40;;;18.60;82.50;;;;;;5085315;28;20481;-81
2021/06/12 02:26:58;;;;;;;32.90;30.73;;;18.60;82.40;;;;;;5076247;28;20568;-80
2021/06/12 02:29:26;;;;;;;32.40;30.40;;;18.50;82.60;;;;;;5087137;28;20452;-81
2021/06/12 02:32:02;;;;;;;33.47;31.20;;;18.50;82.80;;;;;;5069608;28;20488;-81
2021/06/12 02:34:29;;;;;;;33.97;31.77;;;18.50;82.90;;;;;;5086327;28;20523;-81
2021/06/12 02:36:56;;;;;;;33.50;31.40;;;18.50;82.90;;;;;;5084164;28;20563;-81
2021/06/12 02:39:24;;;;;;;33.60;31.50;;;18.50;82.90;;;;;;5087798;28;20449;-82
2021/06/12 02:41:51;;;;;;;32.13;30.13;;;18.50;82.70;;;;;;5086559;28;20461;-81
2021/06/12 02:44:17;;;;;;;33.43;31.33;;;18.60;82.70;;;;;;5094010;28;20468;-80
2021/06/12 02:46:45;;;;;;;33.67;31.67;;;18.50;82.80;;;;;;5099682;28;20902;-81
2021/06/12 02:49:18;;;;;;;32.43;30.53;;;18.40;83.20;;;;;;5090632;28;20457;-80
2021/06/12 02:51:48;;;;;;;33.60;31.53;;;18.40;83.20;;;;;;5078165;28;21302;-80
2021/06/12 02:54:21;;;;;;;32.43;30.43;;;18.40;83.40;;;;;;5087341;28;21029;-81
2021/06/12 02:56:50;;;;;;;33.03;31.03;;;18.50;83.00;;;;;;5080131;28;20566;-80
2021/06/12 02:59:18;;;;;;;33.57;31.53;;;18.50;82.90;;;;;;5083624;28;20467;-82
2021/06/12 03:01:46;;;;;;;33.37;31.37;;;18.50;82.80;;;;;;5078230;28;20472;-81
2021/06/12 03:04:15;;;;;;;32.20;30.30;;;18.40;82.90;;;;;;5085360;28;20487;-79
2021/06/12 03:06:43;;;;;;;33.87;31.77;;;18.30;83.20;;;;;;5079895;28;20564;-79
2021/06/12 03:09:14;;;;;;;34.83;32.23;;;18.20;83.50;;;;;;5085404;28;20461;-79
2021/06/12 03:11:42;;;;;;;34.13;32.03;;;18.10;84.00;;;;;;5076010;28;20469;-79
2021/06/12 03:14:11;;;;;;;34.00;31.80;;;18.00;84.40;;;;;;5077865;28;20504;-80
2021/06/12 03:16:40;;;;;;;34.60;32.50;;;17.90;84.70;;;;;;5078422;28;20445;-79
2021/06/12 03:19:07;;;;;;;33.67;31.40;;;17.90;84.60;;;;;;5064418;28;20576;-79
2021/06/12 03:21:34;;;;;;;33.60;31.50;;;17.90;84.70;;;;;;5070691;28;21045;-79
2021/06/12 03:24:00;;;;;;;32.97;30.87;;;17.90;84.50;;;;;;5084419;28;20588;-79
2021/06/12 03:26:28;;;;;;;33.20;31.30;;;18.00;84.40;;;;;;5079912;28;20490;-79
2021/06/12 03:28:55;;;;;;;33.80;31.60;;;18.00;84.40;;;;;;5081421;28;21051;-79
2021/06/12 03:31:23;;;;;;;32.37;30.47;;;17.90;84.50;;;;;;5082212;28;20544;-79
2021/06/12 03:33:51;;;;;;;32.27;30.33;;;17.90;84.60;;;;;;5082603;28;20569;-79
2021/06/12 03:36:18;;;;;;;33.47;31.47;;;17.90;84.70;;;;;;5080555;28;20457;-79
2021/06/12 03:38:44;;;;;;;31.70;29.63;;;17.80;85.10;;;;;;5083379;28;20518;-79
2021/06/12 03:41:11;;;;;;;33.50;31.60;;;17.80;85.30;;;;;;5082093;28;20827;-79
2021/06/12 03:43:38;;;;;;;32.03;30.07;;;17.80;85.50;;;;;;5080843;28;20942;-79
2021/06/12 03:46:06;;;;;;;32.10;30.23;;;17.90;84.90;;;;;;5066423;28;20476;-79
2021/06/12 03:48:35;;;;;;;32.57;30.67;;;17.90;84.80;;;;;;5083609;28;20473;-79
2021/06/12 03:51:02;;;;;;;33.50;31.60;;;18.00;84.80;;;;;;5081751;28;20457;-79
2021/06/12 03:53:43;;;;;;;34.40;32.30;;;18.00;84.50;;;;;;5083073;28;20508;-79
2021/06/12 03:56:11;;;;;;;32.23;30.33;;;18.10;84.30;;;;;;5081844;28;20457;-79
2021/06/12 03:58:38;;;;;;;33.87;31.80;;;18.10;84.20;;;;;;5080936;28;21122;-80
2021/06/12 04:01:04;;;;;;;33.93;31.87;;;18.20;84.00;;;;;;5083175;28;20549;-80
2021/06/12 04:03:31;;;;;;;35.23;33.03;;;18.20;83.70;;;;;;5084710;28;20536;-80
2021/06/12 04:05:59;;;;;;;35.00;32.63;;;18.20;83.50;;;;;;5080307;28;20473;-79
2021/06/12 04:08:25;;;;;;;34.87;32.53;;;18.30;83.40;;;;;;5084474;28;20461;-80
2021/06/12 04:10:51;;;;;;;35.10;33.00;;;18.40;83.00;;;;;;5083534;28;20461;-80
2021/06/12 04:13:18;;;;;;;35.60;33.30;;;18.30;83.00;;;;;;5084737;28;21305;-79
2021/06/12 04:15:44;;;;;;;32.53;30.60;;;18.30;83.00;;;;;;5081453;28;20556;-79
2021/06/12 04:18:10;;;;;;;34.77;32.57;;;18.30;83.40;;;;;;5064595;28;20458;-79
2021/06/12 04:20:39;;;;;;;32.60;30.70;;;18.30;83.20;;;;;;5078490;28;20513;-79
2021/06/12 04:23:07;;;;;;;33.00;31.00;;;18.30;83.40;;;;;;5078804;28;20572;-79
2021/06/12 04:25:33;;;;;;;32.53;30.63;;;18.30;83.50;;;;;;5078705;28;20461;-79
2021/06/12 04:28:00;;;;;;;33.63;31.53;;;18.50;82.60;;;;;;5078751;28;20465;-79
2021/06/12 04:30:27;;;;;;;34.43;31.93;;;18.50;82.60;;;;;;5083829;28;20467;-79
2021/06/12 04:32:53;;;;;;;33.97;31.87;;;18.60;82.20;;;;;;5082535;28;20484;-79
2021/06/12 04:35:19;;;;;;;35.50;33.40;;;18.70;82.00;;;;;;5079803;28;20486;-79
2021/06/12 04:37:46;;;;;;;34.87;32.77;;;18.90;81.50;;;;;;5066082;28;20534;-79
2021/06/12 04:40:15;;;;;;;33.90;31.70;;;18.90;81.20;;;;;;5080281;28;20572;-79
2021/06/12 04:42:42;;;;;;;33.37;31.40;;;19.00;80.70;;;;;;5064815;28;20542;-79
2021/06/12 04:45:10;;;;;;;35.57;33.47;;;19.20;80.30;;;;;;5075188;28;20457;-79
2021/06/12 04:47:36;;;;;;;36.40;34.10;;;19.30;80.00;;;;;;5075590;28;20831;-80
2021/06/12 04:50:05;;;;;;;33.10;31.20;;;19.40;79.70;;;;;;5081587;28;20461;-79
2021/06/12 04:52:31;;;;;;;34.97;32.77;;;19.50;78.90;;;;;;5077391;28;20461;-79
2021/06/12 04:54:58;;;;;;;34.47;32.47;;;19.50;79.00;;;;;;5082563;28;20449;-79
2021/06/12 04:57:26;;;;;;;35.13;33.07;;;19.60;79.20;;;;;;5081356;28;20464;-81
2021/06/12 04:59:52;;;;;;;34.57;32.53;;;19.90;78.60;;;;;;5082838;28;20556;-80
2021/06/12 05:02:18;;;;;;;34.57;32.67;;;20.00;78.00;;;;;;5068639;28;21000;-80
2021/06/12 05:04:45;;;;;;;34.87;32.57;;;20.20;77.10;;;;;;5074721;28;20501;-79
2021/06/12 05:07:11;;;;;;;36.03;33.93;;;20.20;77.30;;;;;;5071666;28;20994;-79
2021/06/12 05:09:37;;;;;;;35.17;33.10;;;20.20;77.30;;;;;;5083515;28;20828;-79
2021/06/12 05:12:05;;;;;;;34.80;32.43;;;20.30;77.40;;;;;;5071875;28;20974;-79
2021/06/12 05:14:33;;;;;;;33.73;31.53;;;20.30;77.00;;;;;;5071245;28;20568;-79
2021/06/12 05:17:02;;;;;;;35.90;33.80;;;20.50;76.70;;;;;;5081035;28;20538;-79
2021/06/12 05:19:29;;;;;;;34.30;32.20;;;20.60;76.20;;;;;;5080387;28;20464;-79
2021/06/12 05:21:56;;;;;;;33.50;31.40;;;20.80;75.70;;;;;;5083043;28;20588;-79
2021/06/12 05:24:23;;;;;;;36.07;33.83;;;21.00;75.20;;;;;;5083677;28;20568;-79
2021/06/12 05:26:49;;;;;;;35.70;33.60;;;21.20;74.50;;;;;;5074841;28;20653;-79
2021/06/12 05:29:16;;;;;;;36.10;34.10;;;21.40;74.10;;;;;;5069300;28;20540;-79
2021/06/12 05:31:43;;;;;;;35.90;33.30;;;21.50;73.40;;;;;;5086467;28;20467;-79
2021/06/12 05:34:10;;;;;;;36.03;33.93;;;21.60;73.10;;;;;;5086131;28;20480;-79
2021/06/12 05:36:37;;;;;;;36.17;33.83;;;21.70;73.20;;;;;;5075285;28;21009;-79
2021/06/12 05:39:05;;;;;;;38.10;35.80;;;21.80;73.00;;;;;;5081758;28;20548;-79
2021/06/12 05:41:31;;;;;;;36.30;34.23;;;22.00;72.50;;;;;;5081911;28;20530;-79
2021/06/12 05:43:58;;;;;;;35.27;33.37;;;21.90;72.80;;;;;;5088239;28;21909;-79
2021/06/12 05:46:24;;;;;;;36.93;34.63;;;22.00;72.80;;;;;;5082124;28;20521;-79
2021/06/12 05:48:52;;;;;;;34.83;32.83;;;22.10;72.50;;;;;;5083675;28;20461;-79
2021/06/12 05:51:18;;;;;;;37.67;34.90;;;22.30;72.00;;;;;;5084092;28;20460;-79
2021/06/12 05:53:45;;;;;;;36.97;34.47;;;22.50;71.50;;;;;;5086651;28;21013;-79
2021/06/12 05:56:11;;;;;;;35.20;33.10;;;22.70;71.10;;;;;;5080446;28;20461;-79
2021/06/12 05:58:37;;;;;;;36.40;34.27;;;22.70;70.80;;;;;;5085217;28;20619;-79
2021/06/12 06:01:06;;;;;;;36.33;34.17;;;22.70;70.60;;;;;;5086537;28;20485;-79
2021/06/12 06:03:32;;;;;;;37.53;35.33;;;22.90;70.40;;;;;;5068099;28;20477;-80
2021/06/12 06:06:00;;;;;;;34.70;32.60;;;23.00;70.10;;;;;;5083422;28;20540;-79
2021/06/12 06:08:26;;;;;;;35.20;33.27;;;23.00;70.20;;;;;;5070359;28;20450;-79
2021/06/12 06:10:53;;;;;;;36.53;34.43;;;23.10;69.80;;;;;;5082607;28;20528;-79
2021/06/12 06:13:20;;;;;;;41.17;38.67;;;23.30;69.70;;;;;;5072195;28;20534;-79
2021/06/12 06:15:46;;;;;;;38.27;36.00;;;23.30;70.10;;;;;;5084013;28;20457;-78
2021/06/12 06:18:15;;;;;;;40.70;38.20;;;23.50;69.40;;;;;;5075128;28;20572;-79
2021/06/12 06:20:41;;;;;;;37.03;34.90;;;23.60;69.30;;;;;;5098793;28;20472;-79
2021/06/12 06:23:09;;;;;;;36.17;34.07;;;23.60;68.90;;;;;;5092144;28;20492;-81
2021/06/12 06:25:35;;;;;;;36.30;34.10;;;23.80;69.20;;;;;;5066792;28;20450;-78
2021/06/12 06:28:02;;;;;;;35.70;33.73;;;23.90;68.00;;;;;;5076602;28;21335;-79
2021/06/12 06:30:28;;;;;;;36.17;34.07;;;23.90;67.90;;;;;;5083205;28;20460;-79
2021/06/12 06:32:55;;;;;;;35.87;33.87;;;23.80;67.70;;;;;;5087838;28;20568;-79
2021/06/12 06:35:21;;;;;;;34.07;31.97;;;23.80;68.30;;;;;;5088729;28;20526;-79
2021/06/12 06:37:48;;;;;;;36.53;34.43;;;24.00;67.40;;;;;;5079171;28;20988;-80
2021/06/12 06:40:16;;;;;;;35.67;33.47;;;24.20;67.50;;;;;;5084243;28;20518;-79
2021/06/12 06:42:42;;;;;;;36.93;34.70;;;24.30;67.50;;;;;;5088913;28;20543;-81
2021/06/12 06:45:10;;;;;;;35.53;33.53;;;24.30;66.90;;;;;;5078477;28;20545;-79
2021/06/12 06:47:36;;;;;;;35.47;33.37;;;24.50;66.30;;;;;;5087440;28;20481;-79
2021/06/12 06:50:03;;;;;;;35.60;33.30;;;24.50;66.30;;;;;;5088848;28;20839;-83
2021/06/12 06:52:30;;;;;;;35.20;33.00;;;24.70;66.30;;;;;;5083675;28;20457;-84
2021/06/12 06:54:56;;;;;;;36.90;34.63;;;24.80;65.70;;;;;;5085049;28;20459;-79
2021/06/12 06:57:24;;;;;;;36.93;34.83;;;25.00;65.20;;;;;;5078410;28;20977;-82
2021/06/12 06:59:51;;;;;;;35.73;33.73;;;25.20;64.70;;;;;;5083963;28;20460;-77
2021/06/12 07:02:17;;;;;;;35.73;33.70;;;25.40;64.30;;;;;;5080709;28;21027;-77
2021/06/12 07:04:44;;;;;;;35.17;33.07;;;25.60;63.40;;;;;;5081402;28;20457;-77
2021/06/12 07:07:10;;;;;;;35.87;33.67;;;25.60;63.40;;;;;;5069437;28;20486;-76
2021/06/12 07:09:37;;;;;;;36.10;33.77;;;25.70;63.50;;;;;;5067969;28;20484;-76
2021/06/12 07:12:04;;;;;;;36.47;34.37;;;25.80;63.70;;;;;;5086775;28;20465;-77
2021/06/12 07:14:32;;;;;;;36.00;33.90;;;25.80;63.50;;;;;;5083014;28;20559;-78
2021/06/12 07:16:59;;;;;;;36.40;34.10;;;26.00;63.00;;;;;;5072425;28;21003;-79
2021/06/12 07:19:25;;;;;;;37.60;35.50;;;26.10;62.60;;;;;;5071300;28;20457;-77
2021/06/12 07:21:51;;;;;;;35.20;33.10;;;26.20;61.60;;;;;;5073267;28;20885;-77
2021/06/12 07:24:18;;;;;;;34.33;32.37;;;26.40;61.90;;;;;;5081532;28;20481;-78
2021/06/12 07:26:44;;;;;;;35.00;33.03;;;26.40;61.30;;;;;;5073731;28;20503;-77
2021/06/12 07:29:11;;;;;;;35.13;32.97;;;26.50;60.70;;;;;;5076555;28;20457;-76
2021/06/12 07:31:41;;;;;;;36.93;34.73;;;26.30;61.40;;;;;;5077989;28;20460;-77
2021/06/12 07:34:10;;;;;;;35.80;33.60;;;26.50;61.70;;;;;;5077661;28;20485;-76
2021/06/12 07:36:37;;;;;;;34.17;32.07;;;26.50;61.70;;;;;;5076069;28;20450;-77
2021/06/12 07:39:04;;;;;;;34.43;32.30;;;26.70;60.90;;;;;;5081990;28;20549;-77
2021/06/12 07:41:31;;;;;;;33.33;31.33;;;26.80;60.90;;;;;;5077388;28;20488;-79
2021/06/12 07:43:58;;;;;;;33.00;31.00;;;27.00;60.50;;;;;;5071483;28;20913;-77
2021/06/12 07:46:25;;;;;;;31.83;30.03;;;27.10;59.70;;;;;;5074490;28;20474;-76
2021/06/12 07:48:53;;;;;;;33.60;31.70;;;27.20;59.70;;;;;;5080980;28;20453;-76
2021/06/12 07:51:20;;;;;;;32.90;30.90;;;27.30;59.70;;;;;;5080150;28;20489;-77
2021/06/12 07:53:46;;;;;;;32.33;30.37;;;27.70;59.20;;;;;;5082191;28;20481;-77
2021/06/12 07:56:13;;;;;;;32.00;30.10;;;27.80;58.30;;;;;;5076474;28;20585;-77
2021/06/12 07:58:39;;;;;;;32.40;30.50;;;27.90;58.60;;;;;;5075047;28;20458;-77
2021/06/12 08:01:05;;;;;;;32.30;30.40;;;28.10;57.50;;;;;;5070657;28;21253;-77
2021/06/12 08:03:32;;;;;;;33.00;31.07;;;28.00;56.80;;;;;;5063938;28;20484;-77
2021/06/12 08:06:00;;;;;;;33.80;31.80;;;28.00;55.20;;;;;;5075298;28;20477;-77
2021/06/12 08:08:26;;;;;;;38.00;35.50;;;27.90;55.70;;;;;;5078318;28;20532;-77
2021/06/12 08:10:53;;;;;;;36.42;34.08;;;27.90;57.60;;;;;;5079282;28;20461;-77
2021/06/12 08:13:19;;;;;;;37.70;35.20;;;27.80;57.50;;;;;;5077554;28;20611;-80
2021/06/12 08:15:46;;;;;;;37.60;35.07;;;27.70;58.30;;;;;;5080384;28;20827;-81
2021/06/12 08:18:12;;;;;;;36.10;33.20;;;27.70;58.30;;;;;;5076650;28;20568;-81
2021/06/12 08:20:39;;;;;;;35.40;33.20;;;27.70;58.10;;;;;;5077417;28;20457;-78
2021/06/12 08:23:06;;;;;;;36.30;34.10;;;27.60;58.20;;;;;;5067819;28;20491;-83
2021/06/12 08:25:34;;;;;;;34.60;32.37;;;27.60;58.00;;;;;;5081111;28;20513;-77
2021/06/12 08:28:02;;;;;;;33.93;31.77;;;27.80;57.40;;;;;;5081608;28;20485;-77
2021/06/12 08:30:34;;;;;;;35.40;33.10;;;27.90;57.00;;;;;;5083062;28;20452;-79
2021/06/12 08:33:00;;;;;;;37.00;34.80;;;27.90;57.30;;;;;;5082447;28;20546;-77
2021/06/12 08:35:27;;;;;;;34.07;31.70;;;28.00;57.20;;;;;;5083706;28;20717;-77
2021/06/12 08:37:54;;;;;;;32.53;30.63;;;28.00;56.80;;;;;;5076966;28;20465;-77
2021/06/12 08:40:23;;;;;;;38.37;36.27;;;28.10;56.70;;;;;;5077582;28;20457;-78
2021/06/12 08:42:50;;;;;;;35.87;33.63;;;27.80;57.10;;;;;;5075307;28;20539;-77
2021/06/12 08:45:18;;;;;;;32.47;30.47;;;27.50;57.80;;;;;;5076560;28;20553;-78
2021/06/12 08:47:54;;;;;;;36.97;34.57;;;27.30;58.50;;;;;;5077861;28;20477;-78
2021/06/12 08:50:29;;;;;;;33.30;31.27;;;27.30;59.30;;;;;;5081118;28;21055;-77
2021/06/12 08:52:58;;;;;;;35.70;33.50;;;27.50;60.00;;;;;;5065603;28;20478;-76
2021/06/12 08:55:26;;;;;;;39.37;37.17;;;27.60;59.90;;;;;;5071583;28;20464;-76
2021/06/12 08:57:52;;;;;;;35.73;33.20;;;27.60;60.20;;;;;;5062316;28;20466;-76
2021/06/12 09:00:20;;;;;;;35.40;33.30;;;27.30;60.60;;;;;;5061555;28;20820;-76
2021/06/12 09:03:06;;;;;;;35.30;33.10;;;26.80;62.30;;;;;;5080185;28;20629;-76
2021/06/12 09:05:42;;;;;;;39.37;37.00;;;26.70;62.90;;;;;;5079670;28;20451;-76
2021/06/12 09:08:10;;;;;;;37.77;35.47;;;26.70;63.20;;;;;;5061174;28;20477;-77
2021/06/12 09:10:50;;;;;;;35.70;33.60;;;26.90;62.90;;;;;;5080116;28;20607;-76
2021/06/12 09:13:18;;;;;;;35.30;33.23;;;26.90;62.40;;;;;;5061178;28;20473;-76
2021/06/12 09:15:52;;;;;;;36.27;34.23;;;27.00;61.90;;;;;;5071356;28;20639;-77
2021/06/12 09:18:39;;;;;;;32.03;29.77;;;26.90;62.40;;;;;;5070028;28;20437;-76
2021/06/12 09:21:06;;;;;;;31.37;29.47;;;27.00;61.80;;;;;;5065375;28;20545;-77
2021/06/12 09:23:40;;;;;;;32.70;30.60;;;27.10;61.30;;;;;;5064576;28;20758;-77
2021/06/12 09:26:08;;;;;;;32.33;30.43;;;27.40;60.10;;;;;;5075924;28;21002;-77
2021/06/12 09:28:55;;;;;;;29.83;27.83;;;27.10;58.30;;;;;;5066651;28;20477;-77
2021/06/12 09:31:24;;;;;;;32.37;30.57;;;27.10;58.70;;;;;;5071360;28;20461;-76
2021/06/12 09:33:52;;;;;;;30.10;28.40;;;26.90;58.30;;;;;;5064721;28;20476;-77
2021/06/12 09:36:19;;;;;;;31.00;29.20;;;26.30;58.90;;;;;;5073232;28;20870;-76
2021/06/12 09:38:46;;;;;;;30.07;28.20;;;26.20;60.40;;;;;;5064171;28;20483;-76
2021/06/12 09:41:28;;;;;;;31.23;29.53;;;26.20;60.30;;;;;;5066058;28;20579;-77
2021/06/12 09:43:55;;;;;;;31.10;29.20;;;26.20;59.50;;;;;;5065211;28;20474;-76
2021/06/12 09:46:37;;;;;;;29.50;27.80;;;26.20;60.20;;;;;;5079975;28;20457;-77
2021/06/12 09:49:04;;;;;;;31.90;29.63;;;26.20;59.20;;;;;;5082925;28;20970;-76
2021/06/12 09:51:31;;;;;;;32.80;31.00;;;26.10;60.40;;;;;;5074667;28;20553;-76
2021/06/12 09:54:00;;;;;;;31.77;29.97;;;26.20;59.50;;;;;;5068945;28;20989;-76
2021/06/12 09:56:29;;;;;;;29.30;27.50;;;26.20;60.20;;;;;;5078555;28;20454;-77
2021/06/12 09:58:57;;;;;;;31.37;28.70;;;26.10;60.40;;;;;;5084412;28;20460;-79
2021/06/12 10:01:24;;;;;;;29.00;27.30;;;26.30;60.30;;;;;;5069168;28;20454;-77
2021/06/12 10:04:10;;;;;;;31.03;28.97;;;26.50;59.60;;;;;;5068358;28;20468;-77
2021/06/12 10:06:37;;;;;;;27.67;26.07;;;26.60;59.40;;;;;;5074133;28;20568;-77
2021/06/12 10:09:05;;;;;;;29.60;27.80;;;26.60;59.60;;;;;;5063394;28;21027;-77
2021/06/12 10:11:35;;;;;;;30.10;28.40;;;26.60;59.00;;;;;;5076683;28;20959;-77
2021/06/12 10:14:01;;;;;;;29.27;27.50;;;26.70;58.20;;;;;;5083827;28;20516;-77
2021/06/12 10:16:29;;;;;;;29.80;28.00;;;26.60;58.40;;;;;;5076557;28;20462;-79
2021/06/12 10:18:57;;;;;;;30.60;28.80;;;26.80;58.30;;;;;;5062922;28;20489;-78
2021/06/12 10:21:24;;;;;;;28.67;27.07;;;27.20;57.50;;;;;;5064665;28;20573;-78
2021/06/12 10:23:52;;;;;;;28.80;27.10;;;27.30;57.10;;;;;;5079795;28;20481;-77
2021/06/12 10:26:20;;;;;;;31.87;29.87;;;27.30;56.80;;;;;;5077847;28;21023;-78
2021/06/12 10:28:48;;;;;;;30.50;28.50;;;27.00;57.70;;;;;;5081201;28;20467;-79
2021/06/12 10:31:17;;;;;;;30.53;28.63;;;27.20;56.80;;;;;;5072763;28;20461;-78
2021/06/12 10:33:46;;;;;;;31.30;29.40;;;27.40;55.90;;;;;;5085055;28;20475;-79
2021/06/12 10:36:14;;;;;;;30.17;28.37;;;27.50;55.70;;;;;;5079879;28;21356;-79
2021/06/12 10:38:41;;;;;;;29.97;28.17;;;27.80;55.30;;;;;;5066152;28;20450;-79
2021/06/12 10:41:15;;;;;;;29.27;27.20;;;27.80;55.30;;;;;;5077750;28;20458;-79
2021/06/12 10:43:42;;;;;;;30.87;29.07;;;27.80;55.10;;;;;;5086143;28;20474;-79
2021/06/12 10:46:15;;;;;;;28.80;27.00;;;27.80;55.70;;;;;;5076211;28;20506;-79
2021/06/12 10:48:43;;;;;;;28.80;27.10;;;28.00;53.60;;;;;;5064371;28;20589;-79
2021/06/12 10:51:12;;;;;;;31.27;29.17;;;28.00;53.40;;;;;;5075153;28;20969;-79
2021/06/12 10:53:42;;;;;;;30.17;28.47;;;28.10;53.90;;;;;;5085105;28;20480;-79
2021/06/12 10:56:10;;;;;;;29.73;27.83;;;28.20;51.70;;;;;;5084508;28;20461;-78
2021/06/12 10:58:44;;;;;;;31.20;29.60;;;28.40;51.80;;;;;;5083244;28;20449;-77
2021/06/12 11:01:15;;;;;;;28.90;27.10;;;28.60;50.20;;;;;;5078868;28;20465;-78
2021/06/12 11:03:43;;;;;;;31.40;29.40;;;28.40;50.90;;;;;;5093611;28;20484;-80
2021/06/12 11:06:34;;;;;;;29.93;28.23;;;28.20;51.40;;;;;;5088711;28;20824;-78
2021/06/12 11:09:40;;;;;;;29.17;27.57;;;27.90;51.80;;;;;;5087349;28;20460;-79
2021/06/12 11:12:35;;;;;;;28.60;27.00;;;28.20;51.30;;;;;;5075897;28;20458;-80
2021/06/12 11:15:09;;;;;;;31.80;29.80;;;28.30;51.00;;;;;;5070138;28;20464;-78
2021/06/12 11:17:37;;;;;;;28.83;27.13;;;28.60;50.20;;;;;;5073778;28;20532;-79
2021/06/12 11:20:27;;;;;;;28.30;26.60;;;28.50;49.60;;;;;;5080850;28;20464;-78
2021/06/12 11:22:56;;;;;;;30.90;28.60;;;28.40;50.30;;;;;;5082318;28;20492;-79
2021/06/12 11:25:57;;;;;;;30.30;28.50;;;28.60;51.30;;;;;;5072492;28;20462;-77
2021/06/12 11:28:32;;;;;;;28.93;27.13;;;28.40;54.50;;;;;;5060170;28;20572;-77
2021/06/12 11:31:30;;;;;;;31.87;29.67;;;28.00;55.70;;;;;;5062877;28;20467;-77
2021/06/12 11:34:16;;;;;;;30.50;28.70;;;28.00;54.70;;;;;;5069171;28;20570;-77
2021/06/12 11:36:43;;;;;;;30.30;28.40;;;28.10;55.40;;;;;;5066843;28;20466;-77
2021/06/12 11:39:11;;;;;;;30.60;28.80;;;28.10;55.00;;;;;;5071115;28;20461;-77
2021/06/12 11:41:37;;;;;;;28.43;26.80;;;28.00;55.60;;;;;;5068567;28;20502;-78
2021/06/12 11:44:04;;;;;;;30.90;29.03;;;28.20;54.70;;;;;;5069909;28;20576;-79
2021/06/12 11:46:33;;;;;;;30.07;28.27;;;28.30;54.60;;;;;;5082799;28;20453;-79
2021/06/12 11:49:03;;;;;;;28.80;27.10;;;28.30;53.90;;;;;;5083272;28;20461;-77
2021/06/12 11:51:34;;;;;;;28.97;27.17;;;27.90;51.70;;;;;;5070733;28;20934;-78
2021/06/12 11:54:06;;;;;;;30.23;28.43;;;27.70;52.80;;;;;;5073950;28;20603;-78
2021/06/12 11:56:34;;;;;;;30.17;28.03;;;27.80;53.20;;;;;;5074361;28;20477;-77
2021/06/12 11:59:02;;;;;;;32.00;30.20;;;28.00;52.30;;;;;;5080065;28;20823;-79
2021/06/12 12:01:40;;;;;;;31.73;29.83;;;27.80;53.30;;;;;;5068173;28;20465;-78
2021/06/12 12:04:09;;;;;;;29.73;27.83;;;27.70;52.80;;;;;;5078002;28;20480;-79
2021/06/12 12:06:37;;;;;;;29.90;28.03;;;27.60;52.70;;;;;;5069788;28;20468;-79
2021/06/12 12:09:07;;;;;;;29.87;28.07;;;27.70;52.80;;;;;;5071290;28;20467;-79
2021/06/12 12:11:34;;;;;;;30.83;29.13;;;27.90;51.40;;;;;;5076028;28;20460;-79
2021/06/12 12:14:03;;;;;;;30.90;29.10;;;28.20;51.70;;;;;;5072297;28;20480;-79
2021/06/12 12:16:31;;;;;;;29.87;28.07;;;28.30;51.10;;;;;;5069180;28;20454;-79
2021/06/12 12:18:59;;;;;;;32.23;30.43;;;28.10;51.10;;;;;;5074810;28;20984;-79
2021/06/12 12:21:38;;;;;;;28.80;27.10;;;28.20;51.30;;;;;;5070871;28;20536;-79
2021/06/12 12:24:07;;;;;;;28.17;26.57;;;28.00;51.00;;;;;;5074724;28;20489;-79
2021/06/12 12:26:40;;;;;;;28.90;27.20;;;27.60;52.30;;;;;;5071906;28;20519;-79
2021/06/12 12:29:11;;;;;;;31.97;30.23;;;27.60;52.60;;;;;;5068599;28;20509;-79
2021/06/12 12:31:44;;;;;;;28.90;27.20;;;27.40;51.30;;;;;;5066875;28;20620;-79
2021/06/12 12:34:10;;;;;;;28.30;26.60;;;27.30;51.60;;;;;;5066266;28;20863;-79
2021/06/12 12:36:44;;;;;;;30.63;28.90;;;27.30;52.60;;;;;;5072013;28;20522;-79
2021/06/12 12:39:11;;;;;;;28.80;27.20;;;27.40;52.20;;;;;;5077020;28;20467;-79